sensor_id;sensor_type;location;lat;lon;timestamp;P1;durP1;ratioP1;P2;durP2;ratioP2
16892;SDS011;8563;52.242;9.098;2023-08-07T00:00:29;7.77;;;4.90;;
16892;SDS011;8563;52.242;9.098;2023-08-07T00:03:05;5.50;;;4.20;;
16892;SDS011;8563;52.242;9.098;2023-08-07T00:05:38;6.00;;;4.47;;
16892;SDS011;8563;52.242;9.098;2023-08-07T00:08:11;5.73;;;4.20;;
16892;SDS011;8563;52.242;9.098;2023-08-07T00:10:47;5.03;;;3.80;;
16892;SDS011;8563;52.242;9.098;2023-08-07T00:13:20;7.87;;;4.97;;
16892;SDS011;8563;52.242;9.098;2023-08-07T00:15:53;5.33;;;4.23;;
16892;SDS011;8563;52.242;9.098;2023-08-07T00:18:27;6.63;;;4.43;;
16892;SDS011;8563;52.242;9.098;2023-08-07T00:21:00;6.43;;;4.50;;
16892;SDS011;8563;52.242;9.098;2023-08-07T00:23:36;6.50;;;5.50;;
16892;SDS011;8563;52.242;9.098;2023-08-07T00:26:11;7.53;;;4.40;;
16892;SDS011;8563;52.242;9.098;2023-08-07T00:28:45;6.60;;;4.70;;
16892;SDS011;8563;52.242;9.098;2023-08-07T00:31:20;7.63;;;5.13;;
16892;SDS011;8563;52.242;9.098;2023-08-07T00:33:53;8.80;;;5.30;;
16892;SDS011;8563;52.242;9.098;2023-08-07T00:36:27;6.90;;;5.00;;
16892;SDS011;8563;52.242;9.098;2023-08-07T00:39:02;6.30;;;4.87;;
16892;SDS011;8563;52.242;9.098;2023-08-07T00:41:37;6.40;;;4.73;;
16892;SDS011;8563;52.242;9.098;2023-08-07T00:44:10;6.40;;;4.87;;
16892;SDS011;8563;52.242;9.098;2023-08-07T00:46:44;7.97;;;5.50;;
16892;SDS011;8563;52.242;9.098;2023-08-07T00:49:17;4.93;;;4.43;;
16892;SDS011;8563;52.242;9.098;2023-08-07T00:51:55;7.37;;;4.90;;
16892;SDS011;8563;52.242;9.098;2023-08-07T00:54:29;6.73;;;4.37;;
16892;SDS011;8563;52.242;9.098;2023-08-07T00:57:07;5.83;;;5.03;;
16892;SDS011;8563;52.242;9.098;2023-08-07T00:59:43;8.73;;;5.13;;
16892;SDS011;8563;52.242;9.098;2023-08-07T01:02:18;6.13;;;4.60;;
16892;SDS011;8563;52.242;9.098;2023-08-07T01:04:51;8.97;;;4.60;;
16892;SDS011;8563;52.242;9.098;2023-08-07T01:07:27;5.80;;;4.63;;
16892;SDS011;8563;52.242;9.098;2023-08-07T01:10:01;5.83;;;4.40;;
16892;SDS011;8563;52.242;9.098;2023-08-07T01:12:42;4.90;;;4.17;;
16892;SDS011;8563;52.242;9.098;2023-08-07T01:15:19;7.57;;;4.33;;
16892;SDS011;8563;52.242;9.098;2023-08-07T01:17:55;6.03;;;4.17;;
16892;SDS011;8563;52.242;9.098;2023-08-07T01:20:29;6.90;;;4.50;;
16892;SDS011;8563;52.242;9.098;2023-08-07T01:23:05;6.13;;;4.37;;
16892;SDS011;8563;52.242;9.098;2023-08-07T01:25:38;5.97;;;4.33;;
16892;SDS011;8563;52.242;9.098;2023-08-07T01:28:12;6.50;;;4.07;;
16892;SDS011;8563;52.242;9.098;2023-08-07T01:30:50;5.33;;;4.23;;
16892;SDS011;8563;52.242;9.098;2023-08-07T01:33:30;4.17;;;3.77;;
16892;SDS011;8563;52.242;9.098;2023-08-07T01:36:05;5.47;;;3.97;;
16892;SDS011;8563;52.242;9.098;2023-08-07T01:38:42;6.43;;;3.97;;
16892;SDS011;8563;52.242;9.098;2023-08-07T01:41:16;5.90;;;4.27;;
16892;SDS011;8563;52.242;9.098;2023-08-07T01:43:49;4.70;;;3.40;;
16892;SDS011;8563;52.242;9.098;2023-08-07T01:46:22;5.33;;;4.27;;
16892;SDS011;8563;52.242;9.098;2023-08-07T01:48:57;4.67;;;3.90;;
16892;SDS011;8563;52.242;9.098;2023-08-07T01:51:30;4.87;;;4.37;;
16892;SDS011;8563;52.242;9.098;2023-08-07T01:54:05;5.87;;;4.10;;
16892;SDS011;8563;52.242;9.098;2023-08-07T01:56:39;4.87;;;3.73;;
16892;SDS011;8563;52.242;9.098;2023-08-07T01:59:13;6.90;;;3.97;;
16892;SDS011;8563;52.242;9.098;2023-08-07T02:01:49;6.37;;;3.70;;
16892;SDS011;8563;52.242;9.098;2023-08-07T02:04:22;6.40;;;4.10;;
16892;SDS011;8563;52.242;9.098;2023-08-07T02:06:57;4.60;;;3.53;;
16892;SDS011;8563;52.242;9.098;2023-08-07T02:09:32;4.50;;;3.20;;
16892;SDS011;8563;52.242;9.098;2023-08-07T02:12:06;5.80;;;3.43;;
16892;SDS011;8563;52.242;9.098;2023-08-07T02:14:40;3.47;;;2.83;;
16892;SDS011;8563;52.242;9.098;2023-08-07T02:17:14;3.53;;;3.23;;
16892;SDS011;8563;52.242;9.098;2023-08-07T02:19:49;4.03;;;3.63;;
16892;SDS011;8563;52.242;9.098;2023-08-07T02:22:22;6.60;;;3.80;;
16892;SDS011;8563;52.242;9.098;2023-08-07T02:24:58;4.80;;;3.80;;
16892;SDS011;8563;52.242;9.098;2023-08-07T02:27:31;4.53;;;3.40;;
16892;SDS011;8563;52.242;9.098;2023-08-07T02:30:07;5.43;;;3.33;;
16892;SDS011;8563;52.242;9.098;2023-08-07T02:32:40;5.07;;;4.13;;
16892;SDS011;8563;52.242;9.098;2023-08-07T02:35:15;4.43;;;3.53;;
16892;SDS011;8563;52.242;9.098;2023-08-07T02:37:55;4.43;;;3.73;;
16892;SDS011;8563;52.242;9.098;2023-08-07T02:40:30;5.87;;;4.60;;
16892;SDS011;8563;52.242;9.098;2023-08-07T02:43:04;6.03;;;4.23;;
16892;SDS011;8563;52.242;9.098;2023-08-07T02:45:37;6.50;;;4.67;;
16892;SDS011;8563;52.242;9.098;2023-08-07T02:48:12;6.80;;;4.23;;
16892;SDS011;8563;52.242;9.098;2023-08-07T02:50:48;6.93;;;4.37;;
16892;SDS011;8563;52.242;9.098;2023-08-07T02:53:23;6.87;;;4.30;;
16892;SDS011;8563;52.242;9.098;2023-08-07T02:56:00;6.63;;;4.70;;
16892;SDS011;8563;52.242;9.098;2023-08-07T02:58:33;5.90;;;4.33;;
16892;SDS011;8563;52.242;9.098;2023-08-07T03:01:06;9.20;;;4.27;;
16892;SDS011;8563;52.242;9.098;2023-08-07T03:03:46;5.03;;;3.73;;
16892;SDS011;8563;52.242;9.098;2023-08-07T03:06:19;5.63;;;4.10;;
16892;SDS011;8563;52.242;9.098;2023-08-07T03:08:53;6.73;;;4.20;;
16892;SDS011;8563;52.242;9.098;2023-08-07T03:11:28;5.47;;;4.10;;
16892;SDS011;8563;52.242;9.098;2023-08-07T03:14:01;6.33;;;4.00;;
16892;SDS011;8563;52.242;9.098;2023-08-07T03:16:36;4.97;;;4.03;;
16892;SDS011;8563;52.242;9.098;2023-08-07T03:19:10;7.73;;;4.03;;
16892;SDS011;8563;52.242;9.098;2023-08-07T03:21:46;6.70;;;3.73;;
16892;SDS011;8563;52.242;9.098;2023-08-07T03:24:19;6.17;;;4.37;;
16892;SDS011;8563;52.242;9.098;2023-08-07T03:26:54;5.03;;;3.60;;
16892;SDS011;8563;52.242;9.098;2023-08-07T03:29:27;6.80;;;4.07;;
16892;SDS011;8563;52.242;9.098;2023-08-07T03:32:01;6.70;;;4.47;;
16892;SDS011;8563;52.242;9.098;2023-08-07T03:34:35;8.03;;;3.90;;
16892;SDS011;8563;52.242;9.098;2023-08-07T03:37:10;4.77;;;3.50;;
16892;SDS011;8563;52.242;9.098;2023-08-07T03:39:44;8.43;;;3.77;;
16892;SDS011;8563;52.242;9.098;2023-08-07T03:42:25;5.10;;;3.83;;
16892;SDS011;8563;52.242;9.098;2023-08-07T03:44:59;5.83;;;4.20;;
16892;SDS011;8563;52.242;9.098;2023-08-07T03:47:33;4.93;;;3.80;;
16892;SDS011;8563;52.242;9.098;2023-08-07T03:50:07;6.80;;;3.50;;
16892;SDS011;8563;52.242;9.098;2023-08-07T03:52:41;4.90;;;3.70;;
16892;SDS011;8563;52.242;9.098;2023-08-07T03:55:17;4.43;;;3.40;;
16892;SDS011;8563;52.242;9.098;2023-08-07T03:57:54;4.27;;;3.60;;
16892;SDS011;8563;52.242;9.098;2023-08-07T04:00:28;4.80;;;3.33;;
16892;SDS011;8563;52.242;9.098;2023-08-07T04:03:01;5.20;;;3.77;;
16892;SDS011;8563;52.242;9.098;2023-08-07T04:05:34;5.40;;;4.07;;
16892;SDS011;8563;52.242;9.098;2023-08-07T04:08:11;6.23;;;4.00;;
16892;SDS011;8563;52.242;9.098;2023-08-07T04:10:57;6.30;;;4.17;;
16892;SDS011;8563;52.242;9.098;2023-08-07T04:13:33;4.37;;;3.73;;
16892;SDS011;8563;52.242;9.098;2023-08-07T04:16:07;7.53;;;4.73;;
16892;SDS011;8563;52.242;9.098;2023-08-07T04:18:40;7.93;;;4.50;;
16892;SDS011;8563;52.242;9.098;2023-08-07T04:21:14;7.37;;;4.03;;
16892;SDS011;8563;52.242;9.098;2023-08-07T04:23:46;8.13;;;4.90;;
16892;SDS011;8563;52.242;9.098;2023-08-07T04:26:19;8.53;;;4.90;;
16892;SDS011;8563;52.242;9.098;2023-08-07T04:28:56;8.63;;;5.03;;
16892;SDS011;8563;52.242;9.098;2023-08-07T04:31:29;5.77;;;4.97;;
16892;SDS011;8563;52.242;9.098;2023-08-07T04:34:03;5.70;;;4.50;;
16892;SDS011;8563;52.242;9.098;2023-08-07T04:36:36;5.77;;;4.30;;
16892;SDS011;8563;52.242;9.098;2023-08-07T04:39:10;5.73;;;4.70;;
16892;SDS011;8563;52.242;9.098;2023-08-07T04:41:48;5.17;;;4.30;;
16892;SDS011;8563;52.242;9.098;2023-08-07T04:44:30;5.43;;;4.47;;
16892;SDS011;8563;52.242;9.098;2023-08-07T04:47:05;5.47;;;4.63;;
16892;SDS011;8563;52.242;9.098;2023-08-07T04:49:39;6.83;;;4.93;;
16892;SDS011;8563;52.242;9.098;2023-08-07T04:52:13;6.40;;;4.67;;
16892;SDS011;8563;52.242;9.098;2023-08-07T04:54:47;6.07;;;4.70;;
16892;SDS011;8563;52.242;9.098;2023-08-07T04:57:21;5.87;;;5.27;;
16892;SDS011;8563;52.242;9.098;2023-08-07T04:59:57;8.00;;;5.13;;
16892;SDS011;8563;52.242;9.098;2023-08-07T05:02:32;6.63;;;4.50;;
16892;SDS011;8563;52.242;9.098;2023-08-07T05:05:07;6.03;;;4.40;;
16892;SDS011;8563;52.242;9.098;2023-08-07T05:07:47;5.57;;;4.50;;
16892;SDS011;8563;52.242;9.098;2023-08-07T05:10:26;5.17;;;4.67;;
16892;SDS011;8563;52.242;9.098;2023-08-07T05:12:59;7.17;;;4.87;;
16892;SDS011;8563;52.242;9.098;2023-08-07T05:15:35;4.63;;;4.17;;
16892;SDS011;8563;52.242;9.098;2023-08-07T05:18:11;4.57;;;4.00;;
16892;SDS011;8563;52.242;9.098;2023-08-07T05:20:45;4.83;;;3.93;;
16892;SDS011;8563;52.242;9.098;2023-08-07T05:23:28;4.63;;;4.23;;
16892;SDS011;8563;52.242;9.098;2023-08-07T05:26:01;6.23;;;4.33;;
16892;SDS011;8563;52.242;9.098;2023-08-07T05:28:34;6.80;;;4.03;;
16892;SDS011;8563;52.242;9.098;2023-08-07T05:31:09;6.93;;;4.07;;
16892;SDS011;8563;52.242;9.098;2023-08-07T05:33:45;4.00;;;3.30;;
16892;SDS011;8563;52.242;9.098;2023-08-07T05:36:22;5.93;;;3.77;;
16892;SDS011;8563;52.242;9.098;2023-08-07T05:38:55;5.93;;;3.53;;
16892;SDS011;8563;52.242;9.098;2023-08-07T05:41:30;4.17;;;3.37;;
16892;SDS011;8563;52.242;9.098;2023-08-07T05:44:03;3.63;;;2.80;;
16892;SDS011;8563;52.242;9.098;2023-08-07T05:46:38;4.63;;;3.10;;
16892;SDS011;8563;52.242;9.098;2023-08-07T05:49:14;5.50;;;3.17;;
16892;SDS011;8563;52.242;9.098;2023-08-07T05:51:48;3.97;;;2.80;;
16892;SDS011;8563;52.242;9.098;2023-08-07T05:54:22;4.47;;;3.00;;
16892;SDS011;8563;52.242;9.098;2023-08-07T05:57:05;4.03;;;2.80;;
16892;SDS011;8563;52.242;9.098;2023-08-07T05:59:39;3.37;;;2.47;;
16892;SDS011;8563;52.242;9.098;2023-08-07T06:02:15;3.90;;;2.43;;
16892;SDS011;8563;52.242;9.098;2023-08-07T06:04:48;4.53;;;2.30;;
16892;SDS011;8563;52.242;9.098;2023-08-07T06:07:21;3.57;;;2.20;;
16892;SDS011;8563;52.242;9.098;2023-08-07T06:09:54;5.57;;;2.17;;
16892;SDS011;8563;52.242;9.098;2023-08-07T06:12:27;2.80;;;2.50;;
16892;SDS011;8563;52.242;9.098;2023-08-07T06:15:01;2.63;;;2.43;;
16892;SDS011;8563;52.242;9.098;2023-08-07T06:17:38;4.90;;;2.40;;
16892;SDS011;8563;52.242;9.098;2023-08-07T06:20:11;2.47;;;2.27;;
16892;SDS011;8563;52.242;9.098;2023-08-07T06:22:47;3.57;;;2.67;;
16892;SDS011;8563;52.242;9.098;2023-08-07T06:25:22;3.57;;;2.37;;
16892;SDS011;8563;52.242;9.098;2023-08-07T06:27:55;3.63;;;2.50;;
16892;SDS011;8563;52.242;9.098;2023-08-07T06:30:29;3.03;;;2.40;;
16892;SDS011;8563;52.242;9.098;2023-08-07T06:33:08;3.63;;;2.30;;
16892;SDS011;8563;52.242;9.098;2023-08-07T06:35:41;3.87;;;2.37;;
16892;SDS011;8563;52.242;9.098;2023-08-07T06:38:14;4.07;;;2.80;;
16892;SDS011;8563;52.242;9.098;2023-08-07T06:40:48;4.53;;;2.70;;
16892;SDS011;8563;52.242;9.098;2023-08-07T06:43:21;5.53;;;2.60;;
16892;SDS011;8563;52.242;9.098;2023-08-07T06:46:06;5.80;;;2.70;;
16892;SDS011;8563;52.242;9.098;2023-08-07T06:48:41;3.60;;;2.47;;
16892;SDS011;8563;52.242;9.098;2023-08-07T06:51:15;3.07;;;2.30;;
16892;SDS011;8563;52.242;9.098;2023-08-07T06:53:48;5.40;;;2.37;;
16892;SDS011;8563;52.242;9.098;2023-08-07T06:56:21;3.33;;;2.20;;
16892;SDS011;8563;52.242;9.098;2023-08-07T06:58:54;5.40;;;2.40;;
16892;SDS011;8563;52.242;9.098;2023-08-07T07:01:34;4.80;;;2.40;;
16892;SDS011;8563;52.242;9.098;2023-08-07T07:04:09;6.20;;;2.67;;
16892;SDS011;8563;52.242;9.098;2023-08-07T07:06:42;5.37;;;2.53;;
16892;SDS011;8563;52.242;9.098;2023-08-07T07:09:16;3.67;;;2.13;;
16892;SDS011;8563;52.242;9.098;2023-08-07T07:11:51;3.97;;;2.00;;
16892;SDS011;8563;52.242;9.098;2023-08-07T07:14:25;6.13;;;2.40;;
16892;SDS011;8563;52.242;9.098;2023-08-07T07:16:58;5.57;;;2.20;;
16892;SDS011;8563;52.242;9.098;2023-08-07T07:19:33;4.57;;;2.07;;
16892;SDS011;8563;52.242;9.098;2023-08-07T07:22:06;6.47;;;2.30;;
16892;SDS011;8563;52.242;9.098;2023-08-07T07:24:40;6.27;;;2.60;;
16892;SDS011;8563;52.242;9.098;2023-08-07T07:27:12;3.13;;;1.90;;
16892;SDS011;8563;52.242;9.098;2023-08-07T07:29:51;8.87;;;2.27;;
16892;SDS011;8563;52.242;9.098;2023-08-07T07:32:25;5.17;;;1.80;;
16892;SDS011;8563;52.242;9.098;2023-08-07T07:34:59;3.67;;;1.87;;
16892;SDS011;8563;52.242;9.098;2023-08-07T07:37:33;4.72;;;2.17;;
16892;SDS011;8563;52.242;9.098;2023-08-07T07:40:07;3.63;;;1.90;;
16892;SDS011;8563;52.242;9.098;2023-08-07T07:42:41;3.47;;;1.70;;
16892;SDS011;8563;52.242;9.098;2023-08-07T07:45:14;6.65;;;2.03;;
16892;SDS011;8563;52.242;9.098;2023-08-07T07:47:49;5.20;;;1.73;;
16892;SDS011;8563;52.242;9.098;2023-08-07T07:50:24;3.50;;;1.77;;
16892;SDS011;8563;52.242;9.098;2023-08-07T07:52:57;4.13;;;1.92;;
16892;SDS011;8563;52.242;9.098;2023-08-07T07:55:33;3.35;;;1.90;;
16892;SDS011;8563;52.242;9.098;2023-08-07T07:58:08;6.15;;;1.80;;
16892;SDS011;8563;52.242;9.098;2023-08-07T08:00:42;3.90;;;1.92;;
16892;SDS011;8563;52.242;9.098;2023-08-07T08:03:24;5.43;;;1.90;;
16892;SDS011;8563;52.242;9.098;2023-08-07T08:05:59;6.70;;;1.80;;
16892;SDS011;8563;52.242;9.098;2023-08-07T08:08:38;3.97;;;1.45;;
16892;SDS011;8563;52.242;9.098;2023-08-07T08:11:13;2.65;;;1.38;;
16892;SDS011;8563;52.242;9.098;2023-08-07T08:13:45;2.70;;;1.27;;
16892;SDS011;8563;52.242;9.098;2023-08-07T08:16:19;3.72;;;1.77;;
16892;SDS011;8563;52.242;9.098;2023-08-07T08:18:55;2.95;;;1.42;;
16892;SDS011;8563;52.242;9.098;2023-08-07T08:21:37;5.15;;;1.73;;
16892;SDS011;8563;52.242;9.098;2023-08-07T08:24:14;4.93;;;1.55;;
16892;SDS011;8563;52.242;9.098;2023-08-07T08:26:48;4.35;;;1.73;;
16892;SDS011;8563;52.242;9.098;2023-08-07T08:29:25;8.23;;;1.67;;
16892;SDS011;8563;52.242;9.098;2023-08-07T08:31:59;4.55;;;1.50;;
16892;SDS011;8563;52.242;9.098;2023-08-07T08:34:32;4.28;;;1.45;;
16892;SDS011;8563;52.242;9.098;2023-08-07T08:37:25;3.33;;;1.40;;
16892;SDS011;8563;52.242;9.098;2023-08-07T08:40:08;2.78;;;1.25;;
16892;SDS011;8563;52.242;9.098;2023-08-07T08:42:42;3.60;;;1.77;;
16892;SDS011;8563;52.242;9.098;2023-08-07T08:45:17;4.47;;;1.50;;
16892;SDS011;8563;52.242;9.098;2023-08-07T08:47:51;3.58;;;1.50;;
16892;SDS011;8563;52.242;9.098;2023-08-07T08:50:27;3.45;;;1.70;;
16892;SDS011;8563;52.242;9.098;2023-08-07T08:53:02;3.35;;;1.33;;
16892;SDS011;8563;52.242;9.098;2023-08-07T08:55:35;3.75;;;1.35;;
16892;SDS011;8563;52.242;9.098;2023-08-07T08:58:13;4.28;;;1.35;;
16892;SDS011;8563;52.242;9.098;2023-08-07T09:00:47;2.53;;;1.13;;
16892;SDS011;8563;52.242;9.098;2023-08-07T09:03:21;1.98;;;1.13;;
16892;SDS011;8563;52.242;9.098;2023-08-07T09:05:57;2.53;;;1.52;;
16892;SDS011;8563;52.242;9.098;2023-08-07T09:08:34;2.17;;;1.35;;
16892;SDS011;8563;52.242;9.098;2023-08-07T09:11:08;3.33;;;1.25;;
16892;SDS011;8563;52.242;9.098;2023-08-07T09:13:43;3.17;;;1.60;;
16892;SDS011;8563;52.242;9.098;2023-08-07T09:16:20;5.30;;;1.70;;
16892;SDS011;8563;52.242;9.098;2023-08-07T09:18:57;3.30;;;1.48;;
16892;SDS011;8563;52.242;9.098;2023-08-07T09:21:31;4.32;;;1.80;;
16892;SDS011;8563;52.242;9.098;2023-08-07T09:24:06;4.93;;;1.40;;
16892;SDS011;8563;52.242;9.098;2023-08-07T09:26:41;4.25;;;1.85;;
16892;SDS011;8563;52.242;9.098;2023-08-07T09:29:16;3.95;;;1.60;;
16892;SDS011;8563;52.242;9.098;2023-08-07T09:31:50;4.03;;;1.50;;
16892;SDS011;8563;52.242;9.098;2023-08-07T09:34:24;5.50;;;1.48;;
16892;SDS011;8563;52.242;9.098;2023-08-07T09:36:59;6.05;;;1.77;;
16892;SDS011;8563;52.242;9.098;2023-08-07T09:39:34;3.63;;;1.42;;
16892;SDS011;8563;52.242;9.098;2023-08-07T09:42:12;4.85;;;1.38;;
16892;SDS011;8563;52.242;9.098;2023-08-07T09:44:47;1.58;;;0.88;;
16892;SDS011;8563;52.242;9.098;2023-08-07T09:47:21;2.95;;;1.00;;
16892;SDS011;8563;52.242;9.098;2023-08-07T09:49:54;6.43;;;1.17;;
16892;SDS011;8563;52.242;9.098;2023-08-07T09:52:33;3.47;;;1.17;;
16892;SDS011;8563;52.242;9.098;2023-08-07T09:55:17;2.65;;;1.20;;
16892;SDS011;8563;52.242;9.098;2023-08-07T09:57:54;1.70;;;1.17;;
16892;SDS011;8563;52.242;9.098;2023-08-07T10:00:27;3.90;;;1.40;;
16892;SDS011;8563;52.242;9.098;2023-08-07T10:03:00;3.92;;;1.30;;
16892;SDS011;8563;52.242;9.098;2023-08-07T10:05:36;2.47;;;1.30;;
16892;SDS011;8563;52.242;9.098;2023-08-07T10:08:11;3.63;;;1.50;;
16892;SDS011;8563;52.242;9.098;2023-08-07T10:10:49;4.88;;;1.73;;
16892;SDS011;8563;52.242;9.098;2023-08-07T10:13:22;3.47;;;1.70;;
16892;SDS011;8563;52.242;9.098;2023-08-07T10:15:57;6.03;;;1.67;;
16892;SDS011;8563;52.242;9.098;2023-08-07T10:18:30;5.00;;;1.90;;
16892;SDS011;8563;52.242;9.098;2023-08-07T10:21:05;3.60;;;1.60;;
16892;SDS011;8563;52.242;9.098;2023-08-07T10:23:38;5.20;;;1.50;;
16892;SDS011;8563;52.242;9.098;2023-08-07T10:26:12;3.00;;;1.65;;
16892;SDS011;8563;52.242;9.098;2023-08-07T10:28:46;2.65;;;1.30;;
16892;SDS011;8563;52.242;9.098;2023-08-07T10:31:22;4.68;;;1.67;;
16892;SDS011;8563;52.242;9.098;2023-08-07T10:33:57;5.03;;;1.73;;
16892;SDS011;8563;52.242;9.098;2023-08-07T10:36:34;6.32;;;2.05;;
16892;SDS011;8563;52.242;9.098;2023-08-07T10:39:11;4.20;;;1.83;;
16892;SDS011;8563;52.242;9.098;2023-08-07T10:41:48;4.50;;;1.70;;
16892;SDS011;8563;52.242;9.098;2023-08-07T10:44:30;5.00;;;1.67;;
16892;SDS011;8563;52.242;9.098;2023-08-07T10:47:06;3.80;;;1.60;;
16892;SDS011;8563;52.242;9.098;2023-08-07T10:49:40;5.35;;;1.48;;
16892;SDS011;8563;52.242;9.098;2023-08-07T10:52:14;5.53;;;1.88;;
16892;SDS011;8563;52.242;9.098;2023-08-07T10:54:50;4.72;;;1.50;;
16892;SDS011;8563;52.242;9.098;2023-08-07T10:57:28;6.07;;;1.65;;
16892;SDS011;8563;52.242;9.098;2023-08-07T11:00:04;3.30;;;1.58;;
16892;SDS011;8563;52.242;9.098;2023-08-07T11:02:41;2.60;;;1.70;;
16892;SDS011;8563;52.242;9.098;2023-08-07T11:05:15;3.60;;;1.42;;
16892;SDS011;8563;52.242;9.098;2023-08-07T11:07:52;3.20;;;1.63;;
16892;SDS011;8563;52.242;9.098;2023-08-07T11:10:27;4.20;;;1.58;;
16892;SDS011;8563;52.242;9.098;2023-08-07T11:13:04;4.30;;;1.48;;
16892;SDS011;8563;52.242;9.098;2023-08-07T11:15:38;3.75;;;1.63;;
16892;SDS011;8563;52.242;9.098;2023-08-07T11:18:14;5.97;;;1.70;;
16892;SDS011;8563;52.242;9.098;2023-08-07T11:20:48;4.53;;;1.70;;
16892;SDS011;8563;52.242;9.098;2023-08-07T11:23:22;4.63;;;1.40;;
16892;SDS011;8563;52.242;9.098;2023-08-07T11:25:56;4.43;;;1.58;;
16892;SDS011;8563;52.242;9.098;2023-08-07T11:28:32;5.28;;;1.38;;
16892;SDS011;8563;52.242;9.098;2023-08-07T11:31:05;2.65;;;1.50;;
16892;SDS011;8563;52.242;9.098;2023-08-07T11:33:42;4.82;;;1.90;;
16892;SDS011;8563;52.242;9.098;2023-08-07T11:36:17;5.15;;;1.55;;
16892;SDS011;8563;52.242;9.098;2023-08-07T11:38:50;3.35;;;1.60;;
16892;SDS011;8563;52.242;9.098;2023-08-07T11:41:24;4.45;;;1.52;;
16892;SDS011;8563;52.242;9.098;2023-08-07T11:44:01;4.25;;;1.85;;
16892;SDS011;8563;52.242;9.098;2023-08-07T11:46:36;4.22;;;1.80;;
16892;SDS011;8563;52.242;9.098;2023-08-07T11:49:10;3.00;;;1.58;;
16892;SDS011;8563;52.242;9.098;2023-08-07T11:51:43;5.40;;;1.90;;
16892;SDS011;8563;52.242;9.098;2023-08-07T11:54:18;7.38;;;1.88;;
16892;SDS011;8563;52.242;9.098;2023-08-07T11:56:51;6.55;;;2.20;;
16892;SDS011;8563;52.242;9.098;2023-08-07T11:59:27;5.30;;;1.95;;
16892;SDS011;8563;52.242;9.098;2023-08-07T12:02:08;5.95;;;1.88;;
16892;SDS011;8563;52.242;9.098;2023-08-07T12:04:43;5.82;;;1.90;;
16892;SDS011;8563;52.242;9.098;2023-08-07T12:07:16;5.63;;;2.25;;
16892;SDS011;8563;52.242;9.098;2023-08-07T12:09:50;4.38;;;1.63;;
16892;SDS011;8563;52.242;9.098;2023-08-07T12:12:23;5.25;;;1.92;;
16892;SDS011;8563;52.242;9.098;2023-08-07T12:14:57;6.70;;;2.08;;
16892;SDS011;8563;52.242;9.098;2023-08-07T12:17:36;2.90;;;1.50;;
16892;SDS011;8563;52.242;9.098;2023-08-07T12:20:10;4.90;;;2.00;;
16892;SDS011;8563;52.242;9.098;2023-08-07T12:22:43;4.47;;;1.88;;
16892;SDS011;8563;52.242;9.098;2023-08-07T12:25:16;3.25;;;1.77;;
16892;SDS011;8563;52.242;9.098;2023-08-07T12:27:50;4.85;;;1.90;;
16892;SDS011;8563;52.242;9.098;2023-08-07T12:30:25;5.88;;;2.00;;
16892;SDS011;8563;52.242;9.098;2023-08-07T12:32:58;4.47;;;2.03;;
16892;SDS011;8563;52.242;9.098;2023-08-07T12:35:32;6.47;;;1.90;;
16892;SDS011;8563;52.242;9.098;2023-08-07T12:38:05;6.60;;;1.65;;
16892;SDS011;8563;52.242;9.098;2023-08-07T12:40:38;4.70;;;2.00;;
16892;SDS011;8563;52.242;9.098;2023-08-07T12:43:12;6.43;;;2.30;;
16892;SDS011;8563;52.242;9.098;2023-08-07T12:45:48;5.40;;;2.00;;
16892;SDS011;8563;52.242;9.098;2023-08-07T12:48:23;5.63;;;2.20;;
16892;SDS011;8563;52.242;9.098;2023-08-07T12:50:58;5.45;;;2.30;;
16892;SDS011;8563;52.242;9.098;2023-08-07T12:53:30;5.75;;;2.05;;
16892;SDS011;8563;52.242;9.098;2023-08-07T12:56:05;5.55;;;1.92;;
16892;SDS011;8563;52.242;9.098;2023-08-07T12:58:39;5.57;;;2.22;;
16892;SDS011;8563;52.242;9.098;2023-08-07T13:01:14;4.32;;;2.03;;
16892;SDS011;8563;52.242;9.098;2023-08-07T13:03:47;4.65;;;1.85;;
16892;SDS011;8563;52.242;9.098;2023-08-07T13:06:23;6.13;;;2.08;;
16892;SDS011;8563;52.242;9.098;2023-08-07T13:08:56;4.35;;;2.00;;
16892;SDS011;8563;52.242;9.098;2023-08-07T13:11:31;8.07;;;1.60;;
16892;SDS011;8563;52.242;9.098;2023-08-07T13:14:04;5.90;;;2.10;;
16892;SDS011;8563;52.242;9.098;2023-08-07T13:16:39;9.38;;;2.22;;
16892;SDS011;8563;52.242;9.098;2023-08-07T13:19:12;3.63;;;1.60;;
16892;SDS011;8563;52.242;9.098;2023-08-07T13:21:44;5.38;;;1.98;;
16892;SDS011;8563;52.242;9.098;2023-08-07T13:24:18;4.43;;;1.88;;
16892;SDS011;8563;52.242;9.098;2023-08-07T13:26:50;4.60;;;1.70;;
16892;SDS011;8563;52.242;9.098;2023-08-07T13:29:23;7.25;;;2.08;;
16892;SDS011;8563;52.242;9.098;2023-08-07T13:32:01;3.67;;;1.42;;
16892;SDS011;8563;52.242;9.098;2023-08-07T13:34:39;4.32;;;1.75;;
16892;SDS011;8563;52.242;9.098;2023-08-07T13:37:13;5.88;;;1.75;;
16892;SDS011;8563;52.242;9.098;2023-08-07T13:39:46;2.75;;;1.70;;
16892;SDS011;8563;52.242;9.098;2023-08-07T13:42:23;3.72;;;1.77;;
16892;SDS011;8563;52.242;9.098;2023-08-07T13:44:58;3.28;;;1.63;;
16892;SDS011;8563;52.242;9.098;2023-08-07T13:47:33;4.75;;;1.73;;
16892;SDS011;8563;52.242;9.098;2023-08-07T13:50:18;3.03;;;1.60;;
16892;SDS011;8563;52.242;9.098;2023-08-07T13:52:52;3.70;;;1.60;;
16892;SDS011;8563;52.242;9.098;2023-08-07T13:55:25;6.63;;;2.15;;
16892;SDS011;8563;52.242;9.098;2023-08-07T13:57:59;4.65;;;1.63;;
16892;SDS011;8563;52.242;9.098;2023-08-07T14:00:32;4.68;;;1.67;;
16892;SDS011;8563;52.242;9.098;2023-08-07T14:03:08;4.47;;;1.90;;
16892;SDS011;8563;52.242;9.098;2023-08-07T14:05:43;5.35;;;2.30;;
16892;SDS011;8563;52.242;9.098;2023-08-07T14:08:16;4.95;;;2.05;;
16892;SDS011;8563;52.242;9.098;2023-08-07T14:10:51;4.20;;;1.60;;
16892;SDS011;8563;52.242;9.098;2023-08-07T14:13:26;3.47;;;1.67;;
16892;SDS011;8563;52.242;9.098;2023-08-07T14:16:00;2.83;;;1.65;;
16892;SDS011;8563;52.242;9.098;2023-08-07T14:18:37;4.78;;;1.60;;
16892;SDS011;8563;52.242;9.098;2023-08-07T14:21:10;3.25;;;1.50;;
16892;SDS011;8563;52.242;9.098;2023-08-07T14:23:44;3.35;;;1.63;;
16892;SDS011;8563;52.242;9.098;2023-08-07T14:26:19;3.45;;;1.60;;
16892;SDS011;8563;52.242;9.098;2023-08-07T14:28:53;4.57;;;1.58;;
16892;SDS011;8563;52.242;9.098;2023-08-07T14:31:27;5.78;;;1.75;;
16892;SDS011;8563;52.242;9.098;2023-08-07T14:34:01;3.30;;;1.58;;
16892;SDS011;8563;52.242;9.098;2023-08-07T14:36:35;2.92;;;1.65;;
16892;SDS011;8563;52.242;9.098;2023-08-07T14:39:08;4.65;;;1.95;;
16892;SDS011;8563;52.242;9.098;2023-08-07T14:41:42;3.67;;;1.65;;
16892;SDS011;8563;52.242;9.098;2023-08-07T14:44:19;5.10;;;1.70;;
16892;SDS011;8563;52.242;9.098;2023-08-07T14:46:52;4.57;;;1.80;;
16892;SDS011;8563;52.242;9.098;2023-08-07T14:49:31;3.75;;;1.40;;
16892;SDS011;8563;52.242;9.098;2023-08-07T14:52:05;4.78;;;1.85;;
16892;SDS011;8563;52.242;9.098;2023-08-07T14:54:38;5.25;;;2.10;;
16892;SDS011;8563;52.242;9.098;2023-08-07T14:57:11;4.55;;;1.80;;
16892;SDS011;8563;52.242;9.098;2023-08-07T14:59:44;5.03;;;1.73;;
16892;SDS011;8563;52.242;9.098;2023-08-07T15:02:17;13.98;;;1.83;;
16892;SDS011;8563;52.242;9.098;2023-08-07T15:04:52;4.30;;;1.60;;
16892;SDS011;8563;52.242;9.098;2023-08-07T15:07:25;2.53;;;1.63;;
16892;SDS011;8563;52.242;9.098;2023-08-07T15:09:58;3.13;;;1.77;;
16892;SDS011;8563;52.242;9.098;2023-08-07T15:12:32;2.38;;;1.40;;
16892;SDS011;8563;52.242;9.098;2023-08-07T15:15:06;3.88;;;1.80;;
16892;SDS011;8563;52.242;9.098;2023-08-07T15:17:39;4.75;;;1.95;;
16892;SDS011;8563;52.242;9.098;2023-08-07T15:20:14;5.10;;;1.90;;
16892;SDS011;8563;52.242;9.098;2023-08-07T15:22:48;3.13;;;1.80;;
16892;SDS011;8563;52.242;9.098;2023-08-07T15:25:22;6.60;;;1.80;;
16892;SDS011;8563;52.242;9.098;2023-08-07T15:27:56;3.78;;;1.60;;
16892;SDS011;8563;52.242;9.098;2023-08-07T15:30:30;2.67;;;1.50;;
16892;SDS011;8563;52.242;9.098;2023-08-07T15:33:04;4.50;;;1.48;;
16892;SDS011;8563;52.242;9.098;2023-08-07T15:35:46;5.00;;;1.70;;
16892;SDS011;8563;52.242;9.098;2023-08-07T15:38:21;3.83;;;1.40;;
16892;SDS011;8563;52.242;9.098;2023-08-07T15:40:55;3.10;;;1.58;;
16892;SDS011;8563;52.242;9.098;2023-08-07T15:43:28;5.97;;;1.65;;
16892;SDS011;8563;52.242;9.098;2023-08-07T15:46:02;3.15;;;1.60;;